sensor_id;sensor_type;location;lat;lon;timestamp;P1;durP1;ratioP1;P2;durP2;ratioP2
27580;SDS011;63557;52.302;7.964;2023-03-23T00:02:00;36.13;;;21.83;;
27580;SDS011;63557;52.302;7.964;2023-03-23T00:07:00;27.73;;;20.07;;
27580;SDS011;63557;52.302;7.964;2023-03-23T00:12:03;32.08;;;23.23;;
27580;SDS011;63557;52.302;7.964;2023-03-23T00:17:05;33.05;;;24.17;;
27580;SDS011;63557;52.302;7.964;2023-03-23T00:22:06;36.70;;;24.57;;
27580;SDS011;63557;52.302;7.964;2023-03-23T00:27:06;37.22;;;23.83;;
27580;SDS011;63557;52.302;7.964;2023-03-23T00:32:09;33.28;;;22.63;;
27580;SDS011;63557;52.302;7.964;2023-03-23T00:37:12;34.00;;;21.83;;
27580;SDS011;63557;52.302;7.964;2023-03-23T00:42:16;31.35;;;21.48;;
27580;SDS011;63557;52.302;7.964;2023-03-23T00:47:17;29.35;;;20.80;;
27580;SDS011;63557;52.302;7.964;2023-03-23T00:52:17;26.90;;;20.40;;
27580;SDS011;63557;52.302;7.964;2023-03-23T00:57:17;26.13;;;21.23;;
27580;SDS011;63557;52.302;7.964;2023-03-23T01:02:18;29.33;;;19.25;;
27580;SDS011;63557;52.302;7.964;2023-03-23T01:07:20;26.70;;;18.92;;
27580;SDS011;63557;52.302;7.964;2023-03-23T01:12:20;25.42;;;18.27;;
27580;SDS011;63557;52.302;7.964;2023-03-23T01:17:24;19.80;;;14.48;;
27580;SDS011;63557;52.302;7.964;2023-03-23T01:22:24;24.38;;;16.17;;
27580;SDS011;63557;52.302;7.964;2023-03-23T01:27:25;22.23;;;14.82;;
27580;SDS011;63557;52.302;7.964;2023-03-23T01:32:25;22.95;;;14.35;;
27580;SDS011;63557;52.302;7.964;2023-03-23T01:37:25;22.58;;;13.32;;
27580;SDS011;63557;52.302;7.964;2023-03-23T01:42:32;21.35;;;13.15;;
27580;SDS011;63557;52.302;7.964;2023-03-23T01:47:34;18.17;;;12.60;;
27580;SDS011;63557;52.302;7.964;2023-03-23T01:52:35;17.38;;;11.90;;
27580;SDS011;63557;52.302;7.964;2023-03-23T01:57:37;21.92;;;11.90;;
27580;SDS011;63557;52.302;7.964;2023-03-23T02:02:37;19.20;;;12.48;;
27580;SDS011;63557;52.302;7.964;2023-03-23T02:07:39;15.65;;;10.15;;
27580;SDS011;63557;52.302;7.964;2023-03-23T02:12:40;16.88;;;10.32;;
27580;SDS011;63557;52.302;7.964;2023-03-23T02:17:51;18.27;;;11.30;;
27580;SDS011;63557;52.302;7.964;2023-03-23T02:38:36;16.38;;;9.65;;
27580;SDS011;63557;52.302;7.964;2023-03-23T02:43:42;13.55;;;9.15;;
27580;SDS011;63557;52.302;7.964;2023-03-23T02:48:44;13.70;;;8.18;;
27580;SDS011;63557;52.302;7.964;2023-03-23T02:53:46;15.77;;;8.38;;
27580;SDS011;63557;52.302;7.964;2023-03-23T02:58:48;13.02;;;7.43;;
27580;SDS011;63557;52.302;7.964;2023-03-23T03:03:48;10.93;;;6.97;;
27580;SDS011;63557;52.302;7.964;2023-03-23T03:09:13;13.45;;;7.50;;
27580;SDS011;63557;52.302;7.964;2023-03-23T03:14:10;13.55;;;7.65;;
27580;SDS011;63557;52.302;7.964;2023-03-23T03:19:22;13.70;;;8.20;;
27580;SDS011;63557;52.302;7.964;2023-03-23T03:24:27;15.27;;;8.27;;
27580;SDS011;63557;52.302;7.964;2023-03-23T03:29:29;9.35;;;7.40;;
27580;SDS011;63557;52.302;7.964;2023-03-23T03:34:32;9.63;;;7.03;;
27580;SDS011;63557;52.302;7.964;2023-03-23T03:39:34;12.27;;;7.72;;
27580;SDS011;63557;52.302;7.964;2023-03-23T03:44:35;9.98;;;6.88;;
27580;SDS011;63557;52.302;7.964;2023-03-23T03:49:35;13.20;;;6.90;;
27580;SDS011;63557;52.302;7.964;2023-03-23T03:54:36;10.70;;;6.47;;
27580;SDS011;63557;52.302;7.964;2023-03-23T03:59:37;10.38;;;5.53;;
27580;SDS011;63557;52.302;7.964;2023-03-23T04:05:16;8.68;;;5.40;;
27580;SDS011;63557;52.302;7.964;2023-03-23T04:10:19;7.35;;;5.43;;
27580;SDS011;63557;52.302;7.964;2023-03-23T04:15:23;6.00;;;4.97;;
27580;SDS011;63557;52.302;7.964;2023-03-23T04:20:25;7.53;;;5.22;;
27580;SDS011;63557;52.302;7.964;2023-03-23T04:25:27;8.75;;;4.80;;
27580;SDS011;63557;52.302;7.964;2023-03-23T04:30:28;6.78;;;4.32;;
27580;SDS011;63557;52.302;7.964;2023-03-23T04:35:43;6.30;;;4.65;;
27580;SDS011;63557;52.302;7.964;2023-03-23T04:41:11;8.60;;;5.28;;
27580;SDS011;63557;52.302;7.964;2023-03-23T04:46:21;8.25;;;4.82;;
27580;SDS011;63557;52.302;7.964;2023-03-23T04:51:25;8.35;;;5.18;;
27580;SDS011;63557;52.302;7.964;2023-03-23T04:56:27;5.43;;;4.65;;
27580;SDS011;63557;52.302;7.964;2023-03-23T05:01:30;8.70;;;5.22;;
27580;SDS011;63557;52.302;7.964;2023-03-23T05:06:51;9.55;;;5.50;;
27580;SDS011;63557;52.302;7.964;2023-03-23T05:11:57;7.53;;;5.38;;
27580;SDS011;63557;52.302;7.964;2023-03-23T05:17:00;8.25;;;5.50;;
27580;SDS011;63557;52.302;7.964;2023-03-23T05:22:01;6.05;;;5.45;;
27580;SDS011;63557;52.302;7.964;2023-03-23T05:27:10;8.43;;;5.50;;
27580;SDS011;63557;52.302;7.964;2023-03-23T05:32:17;7.60;;;5.45;;
27580;SDS011;63557;52.302;7.964;2023-03-23T05:37:20;7.72;;;5.70;;
27580;SDS011;63557;52.302;7.964;2023-03-23T05:42:23;7.47;;;5.68;;
27580;SDS011;63557;52.302;7.964;2023-03-23T05:47:33;6.75;;;5.53;;
27580;SDS011;63557;52.302;7.964;2023-03-23T05:52:40;5.93;;;5.28;;
27580;SDS011;63557;52.302;7.964;2023-03-23T05:57:43;7.28;;;5.60;;
27580;SDS011;63557;52.302;7.964;2023-03-23T06:03:07;11.60;;;5.78;;
27580;SDS011;63557;52.302;7.964;2023-03-23T06:08:15;10.75;;;6.07;;
27580;SDS011;63557;52.302;7.964;2023-03-23T06:13:16;6.40;;;5.80;;
27580;SDS011;63557;52.302;7.964;2023-03-23T06:18:22;6.25;;;5.60;;
27580;SDS011;63557;52.302;7.964;2023-03-23T06:23:44;8.80;;;6.35;;
27580;SDS011;63557;52.302;7.964;2023-03-23T06:28:45;11.50;;;6.28;;
27580;SDS011;63557;52.302;7.964;2023-03-23T06:33:45;10.07;;;5.50;;
27580;SDS011;63557;52.302;7.964;2023-03-23T06:38:59;8.63;;;5.47;;
27580;SDS011;63557;52.302;7.964;2023-03-23T06:44:11;6.97;;;5.13;;
27580;SDS011;63557;52.302;7.964;2023-03-23T06:49:13;6.93;;;5.47;;
27580;SDS011;63557;52.302;7.964;2023-03-23T06:54:23;6.40;;;5.50;;
27580;SDS011;63557;52.302;7.964;2023-03-23T06:59:24;8.32;;;5.65;;
27580;SDS011;63557;52.302;7.964;2023-03-23T07:04:25;11.35;;;5.78;;
27580;SDS011;63557;52.302;7.964;2023-03-23T07:09:48;9.75;;;5.38;;
27580;SDS011;63557;52.302;7.964;2023-03-23T07:14:52;10.45;;;5.28;;
27580;SDS011;63557;52.302;7.964;2023-03-23T07:19:52;7.85;;;5.53;;
27580;SDS011;63557;52.302;7.964;2023-03-23T07:24:55;8.82;;;5.13;;
27580;SDS011;63557;52.302;7.964;2023-03-23T07:30:04;8.93;;;5.15;;
27580;SDS011;63557;52.302;7.964;2023-03-23T07:35:06;9.50;;;5.55;;
27580;SDS011;63557;52.302;7.964;2023-03-23T07:40:16;7.93;;;4.60;;
27580;SDS011;63557;52.302;7.964;2023-03-23T07:45:20;10.05;;;4.63;;
27580;SDS011;63557;52.302;7.964;2023-03-23T07:50:21;8.98;;;4.72;;
27580;SDS011;63557;52.302;7.964;2023-03-23T07:55:24;11.18;;;5.85;;
27580;SDS011;63557;52.302;7.964;2023-03-23T08:00:35;9.52;;;5.13;;
27580;SDS011;63557;52.302;7.964;2023-03-23T08:05:38;13.48;;;5.50;;
27580;SDS011;63557;52.302;7.964;2023-03-23T08:11:05;8.40;;;4.53;;
27580;SDS011;63557;52.302;7.964;2023-03-23T08:16:25;12.50;;;6.53;;
27580;SDS011;63557;52.302;7.964;2023-03-23T08:21:43;9.52;;;5.50;;
27580;SDS011;63557;52.302;7.964;2023-03-23T08:26:59;9.57;;;5.32;;
27580;SDS011;63557;52.302;7.964;2023-03-23T08:32:14;10.38;;;5.22;;
27580;SDS011;63557;52.302;7.964;2023-03-23T08:37:15;8.50;;;5.00;;
27580;SDS011;63557;52.302;7.964;2023-03-23T08:42:43;6.45;;;4.95;;
27580;SDS011;63557;52.302;7.964;2023-03-23T08:48:09;10.35;;;5.55;;
27580;SDS011;63557;52.302;7.964;2023-03-23T08:53:45;8.52;;;5.72;;
27580;SDS011;63557;52.302;7.964;2023-03-23T08:58:49;12.65;;;5.57;;
27580;SDS011;63557;52.302;7.964;2023-03-23T09:04:00;15.90;;;6.20;;
27580;SDS011;63557;52.302;7.964;2023-03-23T09:09:27;8.38;;;5.20;;
27580;SDS011;63557;52.302;7.964;2023-03-23T09:14:27;12.37;;;4.60;;
27580;SDS011;63557;52.302;7.964;2023-03-23T09:19:28;11.20;;;4.67;;
27580;SDS011;63557;52.302;7.964;2023-03-23T09:24:29;13.15;;;3.70;;
27580;SDS011;63557;52.302;7.964;2023-03-23T09:29:30;9.98;;;3.47;;
27580;SDS011;63557;52.302;7.964;2023-03-23T09:34:30;12.38;;;3.75;;
27580;SDS011;63557;52.302;7.964;2023-03-23T09:39:30;7.13;;;3.17;;
27580;SDS011;63557;52.302;7.964;2023-03-23T09:49:34;4.63;;;1.83;;
27580;SDS011;63557;52.302;7.964;2023-03-23T09:54:38;3.53;;;1.48;;
27580;SDS011;63557;52.302;7.964;2023-03-23T09:59:44;2.13;;;1.35;;
27580;SDS011;63557;52.302;7.964;2023-03-23T10:04:47;5.18;;;1.75;;
27580;SDS011;63557;52.302;7.964;2023-03-23T10:09:51;2.85;;;1.75;;
27580;SDS011;63557;52.302;7.964;2023-03-23T10:15:09;5.70;;;2.10;;
27580;SDS011;63557;52.302;7.964;2023-03-23T10:20:19;4.90;;;1.80;;
27580;SDS011;63557;52.302;7.964;2023-03-23T10:25:22;5.53;;;2.00;;
27580;SDS011;63557;52.302;7.964;2023-03-23T10:30:30;5.45;;;2.38;;
27580;SDS011;63557;52.302;7.964;2023-03-23T10:35:34;4.22;;;2.33;;
27580;SDS011;63557;52.302;7.964;2023-03-23T10:40:35;4.82;;;2.10;;
27580;SDS011;63557;52.302;7.964;2023-03-23T10:45:38;5.07;;;1.65;;
27580;SDS011;63557;52.302;7.964;2023-03-23T10:50:40;4.25;;;1.48;;
27580;SDS011;63557;52.302;7.964;2023-03-23T10:55:41;3.55;;;1.88;;
27580;SDS011;63557;52.302;7.964;2023-03-23T11:00:44;7.40;;;1.70;;
27580;SDS011;63557;52.302;7.964;2023-03-23T11:05:53;4.22;;;1.80;;
27580;SDS011;63557;52.302;7.964;2023-03-23T11:11:11;4.82;;;1.42;;
27580;SDS011;63557;52.302;7.964;2023-03-23T11:16:24;3.20;;;1.88;;
27580;SDS011;63557;52.302;7.964;2023-03-23T11:21:25;2.90;;;1.45;;
27580;SDS011;63557;52.302;7.964;2023-03-23T11:26:27;6.72;;;1.83;;
27580;SDS011;63557;52.302;7.964;2023-03-23T11:31:30;8.13;;;1.60;;
27580;SDS011;63557;52.302;7.964;2023-03-23T11:36:33;5.38;;;1.77;;
27580;SDS011;63557;52.302;7.964;2023-03-23T11:41:34;3.78;;;1.40;;
27580;SDS011;63557;52.302;7.964;2023-03-23T11:46:44;2.60;;;1.38;;
27580;SDS011;63557;52.302;7.964;2023-03-23T11:51:50;4.68;;;1.77;;
27580;SDS011;63557;52.302;7.964;2023-03-23T12:22:38;4.50;;;1.50;;
27580;SDS011;63557;52.302;7.964;2023-03-23T12:32:51;4.97;;;1.55;;
27580;SDS011;63557;52.302;7.964;2023-03-23T12:48:34;4.55;;;1.20;;
27580;SDS011;63557;52.302;7.964;2023-03-23T12:53:43;4.05;;;1.05;;
27580;SDS011;63557;52.302;7.964;2023-03-23T12:58:48;4.75;;;1.48;;
27580;SDS011;63557;52.302;7.964;2023-03-23T13:09:01;3.10;;;1.20;;
27580;SDS011;63557;52.302;7.964;2023-03-23T13:19:27;2.30;;;1.40;;
27580;SDS011;63557;52.302;7.964;2023-03-23T13:24:29;3.05;;;1.50;;
27580;SDS011;63557;52.302;7.964;2023-03-23T13:29:31;3.47;;;1.67;;
27580;SDS011;63557;52.302;7.964;2023-03-23T13:34:32;3.60;;;1.55;;
27580;SDS011;63557;52.302;7.964;2023-03-23T13:39:34;5.30;;;1.60;;
27580;SDS011;63557;52.302;7.964;2023-03-23T13:49:53;5.88;;;1.98;;
27580;SDS011;63557;52.302;7.964;2023-03-23T13:55:08;7.05;;;1.70;;
27580;SDS011;63557;52.302;7.964;2023-03-23T14:00:24;2.30;;;1.52;;
27580;SDS011;63557;52.302;7.964;2023-03-23T14:05:33;4.28;;;1.73;;
27580;SDS011;63557;52.302;7.964;2023-03-23T14:10:44;6.00;;;2.10;;
27580;SDS011;63557;52.302;7.964;2023-03-23T14:16:22;5.53;;;1.98;;
27580;SDS011;63557;52.302;7.964;2023-03-23T14:21:17;5.85;;;2.03;;
27580;SDS011;63557;52.302;7.964;2023-03-23T14:26:21;2.08;;;1.40;;
27580;SDS011;63557;52.302;7.964;2023-03-23T14:36:22;6.50;;;1.70;;
27580;SDS011;63557;52.302;7.964;2023-03-23T14:41:23;3.30;;;1.88;;
27580;SDS011;63557;52.302;7.964;2023-03-23T14:46:24;2.97;;;2.15;;
27580;SDS011;63557;52.302;7.964;2023-03-23T14:51:25;2.80;;;2.08;;
27580;SDS011;63557;52.302;7.964;2023-03-23T14:56:31;5.73;;;3.07;;
27580;SDS011;63557;52.302;7.964;2023-03-23T15:01:33;3.22;;;2.67;;
27580;SDS011;63557;52.302;7.964;2023-03-23T15:06:34;6.65;;;3.47;;
27580;SDS011;63557;52.302;7.964;2023-03-23T15:11:37;5.78;;;3.70;;
27580;SDS011;63557;52.302;7.964;2023-03-23T15:16:39;6.38;;;3.83;;
27580;SDS011;63557;52.302;7.964;2023-03-23T15:21:49;8.17;;;4.57;;
27580;SDS011;63557;52.302;7.964;2023-03-23T15:26:50;6.72;;;5.55;;
27580;SDS011;63557;52.302;7.964;2023-03-23T15:31:52;7.97;;;6.75;;
27580;SDS011;63557;52.302;7.964;2023-03-23T15:36:58;13.35;;;7.85;;
27580;SDS011;63557;52.302;7.964;2023-03-23T15:41:59;9.35;;;5.40;;
27580;SDS011;63557;52.302;7.964;2023-03-23T15:47:04;6.38;;;3.70;;
27580;SDS011;63557;52.302;7.964;2023-03-23T15:52:11;9.32;;;3.15;;
27580;SDS011;63557;52.302;7.964;2023-03-23T15:57:12;4.05;;;1.60;;
27580;SDS011;63557;52.302;7.964;2023-03-23T16:02:15;5.07;;;1.50;;
27580;SDS011;63557;52.302;7.964;2023-03-23T16:07:18;4.18;;;1.90;;
27580;SDS011;63557;52.302;7.964;2023-03-23T16:12:20;4.72;;;1.58;;
27580;SDS011;63557;52.302;7.964;2023-03-23T16:17:20;6.30;;;2.40;;
27580;SDS011;63557;52.302;7.964;2023-03-23T16:22:21;4.57;;;2.33;;
27580;SDS011;63557;52.302;7.964;2023-03-23T16:27:21;8.33;;;3.60;;
27580;SDS011;63557;52.302;7.964;2023-03-23T16:32:22;9.18;;;3.90;;
27580;SDS011;63557;52.302;7.964;2023-03-23T16:37:23;7.37;;;5.50;;
27580;SDS011;63557;52.302;7.964;2023-03-23T16:42:23;13.80;;;6.97;;
27580;SDS011;63557;52.302;7.964;2023-03-23T16:47:23;9.47;;;7.27;;
27580;SDS011;63557;52.302;7.964;2023-03-23T16:52:24;16.40;;;9.60;;
27580;SDS011;63557;52.302;7.964;2023-03-23T16:57:25;17.38;;;10.73;;
27580;SDS011;63557;52.302;7.964;2023-03-23T17:02:25;16.30;;;10.57;;
27580;SDS011;63557;52.302;7.964;2023-03-23T17:07:25;25.13;;;11.17;;
27580;SDS011;63557;52.302;7.964;2023-03-23T17:12:26;16.25;;;9.48;;
27580;SDS011;63557;52.302;7.964;2023-03-23T17:17:27;15.57;;;8.63;;
27580;SDS011;63557;52.302;7.964;2023-03-23T17:22:27;14.65;;;9.32;;
27580;SDS011;63557;52.302;7.964;2023-03-23T17:27:28;20.58;;;10.35;;
27580;SDS011;63557;52.302;7.964;2023-03-23T17:32:29;18.45;;;13.98;;
27580;SDS011;63557;52.302;7.964;2023-03-23T17:37:29;20.13;;;14.85;;
27580;SDS011;63557;52.302;7.964;2023-03-23T17:42:29;19.13;;;14.98;;
27580;SDS011;63557;52.302;7.964;2023-03-23T17:47:30;23.13;;;17.33;;
27580;SDS011;63557;52.302;7.964;2023-03-23T17:52:30;25.75;;;16.75;;
27580;SDS011;63557;52.302;7.964;2023-03-23T17:57:31;21.87;;;13.20;;
27580;SDS011;63557;52.302;7.964;2023-03-23T18:02:31;16.47;;;12.80;;
27580;SDS011;63557;52.302;7.964;2023-03-23T18:07:32;20.27;;;12.83;;
27580;SDS011;63557;52.302;7.964;2023-03-23T18:12:32;20.43;;;13.00;;
27580;SDS011;63557;52.302;7.964;2023-03-23T18:17:32;18.37;;;11.63;;
27580;SDS011;63557;52.302;7.964;2023-03-23T18:22:33;16.17;;;9.60;;
27580;SDS011;63557;52.302;7.964;2023-03-23T18:27:33;15.20;;;10.50;;
27580;SDS011;63557;52.302;7.964;2023-03-23T18:32:37;18.58;;;10.85;;
27580;SDS011;63557;52.302;7.964;2023-03-23T18:37:38;16.58;;;10.73;;
27580;SDS011;63557;52.302;7.964;2023-03-23T18:42:38;16.85;;;10.75;;
27580;SDS011;63557;52.302;7.964;2023-03-23T18:47:39;17.35;;;11.15;;
27580;SDS011;63557;52.302;7.964;2023-03-23T18:52:39;16.30;;;10.53;;
27580;SDS011;63557;52.302;7.964;2023-03-23T18:57:41;14.93;;;10.88;;
27580;SDS011;63557;52.302;7.964;2023-03-23T19:02:41;17.60;;;11.30;;
27580;SDS011;63557;52.302;7.964;2023-03-23T19:07:42;17.45;;;10.95;;
27580;SDS011;63557;52.302;7.964;2023-03-23T19:12:42;18.70;;;10.48;;
27580;SDS011;63557;52.302;7.964;2023-03-23T19:17:43;15.47;;;9.83;;
27580;SDS011;63557;52.302;7.964;2023-03-23T19:22:43;12.70;;;9.98;;
27580;SDS011;63557;52.302;7.964;2023-03-23T19:27:44;18.47;;;11.00;;
27580;SDS011;63557;52.302;7.964;2023-03-23T19:32:44;18.40;;;9.55;;
27580;SDS011;63557;52.302;7.964;2023-03-23T19:37:44;19.35;;;9.50;;
27580;SDS011;63557;52.302;7.964;2023-03-23T19:42:45;10.57;;;7.15;;
27580;SDS011;63557;52.302;7.964;2023-03-23T19:47:46;13.25;;;6.93;;
27580;SDS011;63557;52.302;7.964;2023-03-23T19:52:46;13.90;;;6.82;;
27580;SDS011;63557;52.302;7.964;2023-03-23T19:57:47;10.38;;;6.28;;
27580;SDS011;63557;52.302;7.964;2023-03-23T20:02:49;15.38;;;6.00;;
27580;SDS011;63557;52.302;7.964;2023-03-23T20:07:49;12.70;;;5.17;;
27580;SDS011;63557;52.302;7.964;2023-03-23T20:12:50;13.43;;;5.93;;
27580;SDS011;63557;52.302;7.964;2023-03-23T20:17:50;12.43;;;5.68;;
27580;SDS011;63557;52.302;7.964;2023-03-23T20:22:51;15.40;;;6.30;;
27580;SDS011;63557;52.302;7.964;2023-03-23T20:27:51;14.20;;;5.83;;
27580;SDS011;63557;52.302;7.964;2023-03-23T20:32:51;12.27;;;6.60;;
27580;SDS011;63557;52.302;7.964;2023-03-23T20:37:57;15.52;;;6.47;;
27580;SDS011;63557;52.302;7.964;2023-03-23T20:42:58;15.23;;;6.78;;
27580;SDS011;63557;52.302;7.964;2023-03-23T20:48:00;14.48;;;7.22;;
27580;SDS011;63557;52.302;7.964;2023-03-23T20:53:01;14.32;;;6.97;;
27580;SDS011;63557;52.302;7.964;2023-03-23T20:58:02;15.23;;;7.43;;
27580;SDS011;63557;52.302;7.964;2023-03-23T21:03:03;16.67;;;6.67;;
27580;SDS011;63557;52.302;7.964;2023-03-23T21:08:03;10.70;;;5.55;;
27580;SDS011;63557;52.302;7.964;2023-03-23T21:13:04;11.43;;;5.72;;
27580;SDS011;63557;52.302;7.964;2023-03-23T21:18:05;10.80;;;5.75;;
27580;SDS011;63557;52.302;7.964;2023-03-23T21:23:06;14.68;;;5.45;;
27580;SDS011;63557;52.302;7.964;2023-03-23T21:28:06;11.75;;;5.53;;
27580;SDS011;63557;52.302;7.964;2023-03-23T21:33:07;10.57;;;5.35;;
27580;SDS011;63557;52.302;7.964;2023-03-23T21:38:08;14.10;;;4.80;;
27580;SDS011;63557;52.302;7.964;2023-03-23T21:43:13;9.13;;;4.85;;
27580;SDS011;63557;52.302;7.964;2023-03-23T21:48:15;9.18;;;4.55;;
27580;SDS011;63557;52.302;7.964;2023-03-23T21:53:15;10.50;;;4.43;;
27580;SDS011;63557;52.302;7.964;2023-03-23T21:58:24;9.45;;;4.57;;
27580;SDS011;63557;52.302;7.964;2023-03-23T22:03:26;11.70;;;4.88;;
27580;SDS011;63557;52.302;7.964;2023-03-23T22:08:31;7.77;;;3.83;;
27580;SDS011;63557;52.302;7.964;2023-03-23T22:13:32;8.95;;;3.95;;
27580;SDS011;63557;52.302;7.964;2023-03-23T22:18:33;11.45;;;3.92;;
27580;SDS011;63557;52.302;7.964;2023-03-23T22:23:34;7.75;;;4.05;;
27580;SDS011;63557;52.302;7.964;2023-03-23T22:28:34;7.47;;;3.90;;
27580;SDS011;63557;52.302;7.964;2023-03-23T22:33:38;8.10;;;3.75;;
27580;SDS011;63557;52.302;7.964;2023-03-23T22:38:40;9.65;;;3.70;;
27580;SDS011;63557;52.302;7.964;2023-03-23T22:43:40;9.48;;;3.33;;
27580;SDS011;63557;52.302;7.964;2023-03-23T22:48:41;12.23;;;4.22;;
27580;SDS011;63557;52.302;7.964;2023-03-23T22:53:42;9.93;;;3.80;;
27580;SDS011;63557;52.302;7.964;2023-03-23T22:58:42;10.48;;;4.10;;
27580;SDS011;63557;52.302;7.964;2023-03-23T23:03:43;14.77;;;4.22;;
27580;SDS011;63557;52.302;7.964;2023-03-23T23:08:44;8.82;;;4.50;;
27580;SDS011;63557;52.302;7.964;2023-03-23T23:13:45;8.45;;;4.00;;
27580;SDS011;63557;52.302;7.964;2023-03-23T23:18:45;9.77;;;4.43;;
27580;SDS011;63557;52.302;7.964;2023-03-23T23:23:49;15.13;;;4.97;;
27580;SDS011;63557;52.302;7.964;2023-03-23T23:28:51;9.20;;;4.40;;
27580;SDS011;63557;52.302;7.964;2023-03-23T23:33:52;14.45;;;4.53;;
27580;SDS011;63557;52.302;7.964;2023-03-23T23:38:53;7.85;;;4.90;;
27580;SDS011;63557;52.302;7.964;2023-03-23T23:43:53;11.50;;;4.27;;
27580;SDS011;63557;52.302;7.964;2023-03-23T23:48:54;9.93;;;4.53;;
27580;SDS011;63557;52.302;7.964;2023-03-23T23:53:55;10.40;;;5.50;;
27580;SDS011;63557;52.302;7.964;2023-03-23T23:58:57;11.07;;;4.50;;
